sensor_id;sensor_type;location;lat;lon;timestamp;temperature;humidity
9668;DHT22;4872;48.316;10.650;2022-11-06T04:50:45;2.20;99.90
9668;DHT22;4872;48.316;10.650;2022-11-06T04:53:13;2.20;99.90
9668;DHT22;4872;48.316;10.650;2022-11-06T04:55:45;2.10;99.90
9668;DHT22;4872;48.316;10.650;2022-11-06T04:58:12;2.10;99.90
9668;DHT22;4872;48.316;10.650;2022-11-06T05:00:42;2.10;99.90
9668;DHT22;4872;48.316;10.650;2022-11-06T05:03:10;2.00;99.90
9668;DHT22;4872;48.316;10.650;2022-11-06T05:05:37;2.00;99.90
9668;DHT22;4872;48.316;10.650;2022-11-06T05:08:05;2.00;99.90
9668;DHT22;4872;48.316;10.650;2022-11-06T05:10:32;2.00;99.90
9668;DHT22;4872;48.316;10.650;2022-11-06T05:12:59;2.00;99.90
9668;DHT22;4872;48.316;10.650;2022-11-06T05:15:26;2.00;99.90
9668;DHT22;4872;48.316;10.650;2022-11-06T05:17:53;2.00;99.90
9668;DHT22;4872;48.316;10.650;2022-11-06T05:20:19;1.90;99.90
9668;DHT22;4872;48.316;10.650;2022-11-06T05:22:46;1.90;99.90
9668;DHT22;4872;48.316;10.650;2022-11-06T05:25:27;1.80;99.90
9668;DHT22;4872;48.316;10.650;2022-11-06T05:27:54;1.80;99.90
9668;DHT22;4872;48.316;10.650;2022-11-06T05:30:22;1.70;99.90
9668;DHT22;4872;48.316;10.650;2022-11-06T05:32:49;1.70;99.90
9668;DHT22;4872;48.316;10.650;2022-11-06T05:35:17;1.70;99.90
9668;DHT22;4872;48.316;10.650;2022-11-06T05:37:44;1.70;99.90
9668;DHT22;4872;48.316;10.650;2022-11-06T05:40:11;1.70;99.90
9668;DHT22;4872;48.316;10.650;2022-11-06T05:42:40;1.70;99.90
9668;DHT22;4872;48.316;10.650;2022-11-06T05:45:09;1.70;99.90
9668;DHT22;4872;48.316;10.650;2022-11-06T05:47:39;1.70;99.90
9668;DHT22;4872;48.316;10.650;2022-11-06T05:50:06;1.70;99.90
9668;DHT22;4872;48.316;10.650;2022-11-06T05:52:33;1.70;99.90
9668;DHT22;4872;48.316;10.650;2022-11-06T05:55:00;1.50;99.90
9668;DHT22;4872;48.316;10.650;2022-11-06T05:57:27;1.40;99.90
9668;DHT22;4872;48.316;10.650;2022-11-06T05:59:55;1.30;99.90
9668;DHT22;4872;48.316;10.650;2022-11-06T06:02:22;1.10;99.90
9668;DHT22;4872;48.316;10.650;2022-11-06T06:04:49;0.90;99.90
9668;DHT22;4872;48.316;10.650;2022-11-06T06:07:15;1.00;99.90
9668;DHT22;4872;48.316;10.650;2022-11-06T06:09:42;1.00;99.90
9668;DHT22;4872;48.316;10.650;2022-11-06T06:12:10;1.10;99.90
9668;DHT22;4872;48.316;10.650;2022-11-06T06:14:37;1.10;99.90
9668;DHT22;4872;48.316;10.650;2022-11-06T06:17:06;1.20;99.90
9668;DHT22;4872;48.316;10.650;2022-11-06T06:19:33;1.20;99.90
9668;DHT22;4872;48.316;10.650;2022-11-06T06:21:59;1.30;99.90
9668;DHT22;4872;48.316;10.650;2022-11-06T06:24:26;1.30;99.90
9668;DHT22;4872;48.316;10.650;2022-11-06T06:26:53;1.30;99.90
9668;DHT22;4872;48.316;10.650;2022-11-06T06:29:20;1.30;99.90
9668;DHT22;4872;48.316;10.650;2022-11-06T06:31:47;1.30;99.90
9668;DHT22;4872;48.316;10.650;2022-11-06T06:34:16;1.20;99.90
9668;DHT22;4872;48.316;10.650;2022-11-06T06:36:42;1.10;99.90
9668;DHT22;4872;48.316;10.650;2022-11-06T06:39:09;0.90;99.90
9668;DHT22;4872;48.316;10.650;2022-11-06T06:41:36;0.80;99.90
9668;DHT22;4872;48.316;10.650;2022-11-06T06:44:03;0.70;99.90
9668;DHT22;4872;48.316;10.650;2022-11-06T06:46:30;0.60;99.90
9668;DHT22;4872;48.316;10.650;2022-11-06T06:48:57;0.60;99.90
9668;DHT22;4872;48.316;10.650;2022-11-06T06:51:25;0.70;99.90
9668;DHT22;4872;48.316;10.650;2022-11-06T06:53:51;0.80;99.90
9668;DHT22;4872;48.316;10.650;2022-11-06T06:56:18;0.90;99.90
9668;DHT22;4872;48.316;10.650;2022-11-06T06:58:45;0.90;99.90
9668;DHT22;4872;48.316;10.650;2022-11-06T07:01:12;0.90;99.90
9668;DHT22;4872;48.316;10.650;2022-11-06T07:03:39;0.90;99.90
9668;DHT22;4872;48.316;10.650;2022-11-06T07:06:06;1.00;99.90
9668;DHT22;4872;48.316;10.650;2022-11-06T07:08:34;1.00;99.90
9668;DHT22;4872;48.316;10.650;2022-11-06T07:11:03;1.10;99.90
9668;DHT22;4872;48.316;10.650;2022-11-06T07:13:30;1.10;99.90
9668;DHT22;4872;48.316;10.650;2022-11-06T07:15:57;1.20;99.90
9668;DHT22;4872;48.316;10.650;2022-11-06T07:18:24;1.20;99.90
9668;DHT22;4872;48.316;10.650;2022-11-06T07:20:51;1.20;99.90
9668;DHT22;4872;48.316;10.650;2022-11-06T07:23:18;1.20;99.90
9668;DHT22;4872;48.316;10.650;2022-11-06T07:25:50;1.20;99.90
9668;DHT22;4872;48.316;10.650;2022-11-06T07:28:17;1.20;99.90
9668;DHT22;4872;48.316;10.650;2022-11-06T07:30:44;1.10;99.90
9668;DHT22;4872;48.316;10.650;2022-11-06T07:33:11;1.20;99.90
9668;DHT22;4872;48.316;10.650;2022-11-06T07:35:38;0.90;99.90
9668;DHT22;4872;48.316;10.650;2022-11-06T07:38:06;0.80;99.90
9668;DHT22;4872;48.316;10.650;2022-11-06T07:40:33;0.90;99.90
9668;DHT22;4872;48.316;10.650;2022-11-06T07:43:05;0.90;99.90
9668;DHT22;4872;48.316;10.650;2022-11-06T07:45:33;0.90;99.90
9668;DHT22;4872;48.316;10.650;2022-11-06T07:47:59;1.00;99.90
9668;DHT22;4872;48.316;10.650;2022-11-06T07:50:27;1.00;99.90
9668;DHT22;4872;48.316;10.650;2022-11-06T07:52:54;1.00;99.90
9668;DHT22;4872;48.316;10.650;2022-11-06T07:55:21;1.00;99.90
9668;DHT22;4872;48.316;10.650;2022-11-06T07:57:48;1.10;99.90
9668;DHT22;4872;48.316;10.650;2022-11-06T08:00:17;1.10;99.90
9668;DHT22;4872;48.316;10.650;2022-11-06T08:02:49;1.30;99.90
9668;DHT22;4872;48.316;10.650;2022-11-06T08:05:15;1.50;99.90
9668;DHT22;4872;48.316;10.650;2022-11-06T08:07:42;1.70;99.90
9668;DHT22;4872;48.316;10.650;2022-11-06T08:10:09;2.00;99.90
9668;DHT22;4872;48.316;10.650;2022-11-06T08:12:36;2.20;99.90
9668;DHT22;4872;48.316;10.650;2022-11-06T08:15:03;2.50;99.90
9668;DHT22;4872;48.316;10.650;2022-11-06T08:17:31;2.70;99.90
9668;DHT22;4872;48.316;10.650;2022-11-06T08:19:58;2.80;99.90
9668;DHT22;4872;48.316;10.650;2022-11-06T08:22:25;3.00;99.90
9668;DHT22;4872;48.316;10.650;2022-11-06T08:24:52;3.30;99.90
9668;DHT22;4872;48.316;10.650;2022-11-06T08:27:18;3.30;99.90
9668;DHT22;4872;48.316;10.650;2022-11-06T08:29:45;3.40;99.90
9668;DHT22;4872;48.316;10.650;2022-11-06T08:32:12;3.50;99.90
9668;DHT22;4872;48.316;10.650;2022-11-06T08:34:40;3.50;99.90
9668;DHT22;4872;48.316;10.650;2022-11-06T08:37:08;3.60;99.90
9668;DHT22;4872;48.316;10.650;2022-11-06T08:39:35;3.60;99.90
9668;DHT22;4872;48.316;10.650;2022-11-06T08:42:03;3.60;99.90
9668;DHT22;4872;48.316;10.650;2022-11-06T08:44:30;3.60;99.90
9668;DHT22;4872;48.316;10.650;2022-11-06T08:46:56;3.70;99.90
9668;DHT22;4872;48.316;10.650;2022-11-06T08:49:23;3.80;99.90
9668;DHT22;4872;48.316;10.650;2022-11-06T08:51:51;3.80;99.90
9668;DHT22;4872;48.316;10.650;2022-11-06T08:54:19;3.90;99.90
9668;DHT22;4872;48.316;10.650;2022-11-06T08:56:46;4.00;99.90
9668;DHT22;4872;48.316;10.650;2022-11-06T08:59:13;4.10;99.90
9668;DHT22;4872;48.316;10.650;2022-11-06T09:01:40;4.30;99.90
9668;DHT22;4872;48.316;10.650;2022-11-06T09:04:06;4.40;99.90
9668;DHT22;4872;48.316;10.650;2022-11-06T09:06:33;4.60;99.90
9668;DHT22;4872;48.316;10.650;2022-11-06T09:09:01;4.60;99.90
9668;DHT22;4872;48.316;10.650;2022-11-06T09:11:28;4.80;99.90
9668;DHT22;4872;48.316;10.650;2022-11-06T09:13:56;5.10;99.90
9668;DHT22;4872;48.316;10.650;2022-11-06T09:16:23;5.10;99.90
9668;DHT22;4872;48.316;10.650;2022-11-06T09:18:52;5.20;99.90
9668;DHT22;4872;48.316;10.650;2022-11-06T09:21:19;5.30;99.90
9668;DHT22;4872;48.316;10.650;2022-11-06T09:23:46;5.40;99.90
9668;DHT22;4872;48.316;10.650;2022-11-06T09:26:16;5.70;99.90
9668;DHT22;4872;48.316;10.650;2022-11-06T09:28:42;6.00;99.90
9668;DHT22;4872;48.316;10.650;2022-11-06T09:31:09;5.90;99.90
9668;DHT22;4872;48.316;10.650;2022-11-06T09:33:36;6.00;99.90
9668;DHT22;4872;48.316;10.650;2022-11-06T09:36:03;6.10;99.90
9668;DHT22;4872;48.316;10.650;2022-11-06T09:38:30;6.00;99.90
9668;DHT22;4872;48.316;10.650;2022-11-06T09:40:59;6.00;99.90
9668;DHT22;4872;48.316;10.650;2022-11-06T09:43:42;6.00;99.90
9668;DHT22;4872;48.316;10.650;2022-11-06T09:46:20;6.00;99.90
9668;DHT22;4872;48.316;10.650;2022-11-06T09:48:52;6.00;99.90
9668;DHT22;4872;48.316;10.650;2022-11-06T09:51:28;6.00;99.90
9668;DHT22;4872;48.316;10.650;2022-11-06T09:54:02;6.00;99.90
9668;DHT22;4872;48.316;10.650;2022-11-06T09:56:33;6.00;99.90
9668;DHT22;4872;48.316;10.650;2022-11-06T09:59:03;6.00;99.90
9668;DHT22;4872;48.316;10.650;2022-11-06T10:01:36;6.00;99.90
9668;DHT22;4872;48.316;10.650;2022-11-06T10:04:04;6.00;99.90
9668;DHT22;4872;48.316;10.650;2022-11-06T10:06:31;6.00;99.90
9668;DHT22;4872;48.316;10.650;2022-11-06T10:09:00;6.00;99.90
9668;DHT22;4872;48.316;10.650;2022-11-06T10:11:45;6.10;99.90
9668;DHT22;4872;48.316;10.650;2022-11-06T10:14:23;6.30;99.90
9668;DHT22;4872;48.316;10.650;2022-11-06T10:16:59;6.20;99.90
9668;DHT22;4872;48.316;10.650;2022-11-06T10:19:37;6.30;99.90
9668;DHT22;4872;48.316;10.650;2022-11-06T10:22:10;6.40;99.90
9668;DHT22;4872;48.316;10.650;2022-11-06T10:24:44;6.50;99.90
9668;DHT22;4872;48.316;10.650;2022-11-06T10:27:15;6.60;99.90
9668;DHT22;4872;48.316;10.650;2022-11-06T10:30:00;6.80;99.90
9668;DHT22;4872;48.316;10.650;2022-11-06T10:32:54;6.90;99.90
9668;DHT22;4872;48.316;10.650;2022-11-06T10:35:29;7.10;99.90
9668;DHT22;4872;48.316;10.650;2022-11-06T10:38:00;7.20;99.90
9668;DHT22;4872;48.316;10.650;2022-11-06T10:40:31;7.40;99.90
9668;DHT22;4872;48.316;10.650;2022-11-06T10:43:05;7.50;99.90
9668;DHT22;4872;48.316;10.650;2022-11-06T10:45:35;7.60;99.90
9668;DHT22;4872;48.316;10.650;2022-11-06T10:48:18;7.80;99.90
9668;DHT22;4872;48.316;10.650;2022-11-06T10:50:49;8.10;99.90
9668;DHT22;4872;48.316;10.650;2022-11-06T10:53:25;8.30;99.90
9668;DHT22;4872;48.316;10.650;2022-11-06T10:58:51;8.70;99.90
9668;DHT22;4872;48.316;10.650;2022-11-06T11:01:20;8.70;99.90
9668;DHT22;4872;48.316;10.650;2022-11-06T11:03:47;8.80;99.90
9668;DHT22;4872;48.316;10.650;2022-11-06T11:06:15;8.80;99.90
9668;DHT22;4872;48.316;10.650;2022-11-06T11:08:43;8.90;99.90
9668;DHT22;4872;48.316;10.650;2022-11-06T11:11:21;9.00;99.90
9668;DHT22;4872;48.316;10.650;2022-11-06T11:13:51;9.10;99.90
9668;DHT22;4872;48.316;10.650;2022-11-06T11:16:39;9.30;99.90
9668;DHT22;4872;48.316;10.650;2022-11-06T11:19:24;9.40;99.90
9668;DHT22;4872;48.316;10.650;2022-11-06T11:21:53;9.60;99.90
9668;DHT22;4872;48.316;10.650;2022-11-06T11:24:20;9.80;99.90
9668;DHT22;4872;48.316;10.650;2022-11-06T11:26:48;9.90;99.90
9668;DHT22;4872;48.316;10.650;2022-11-06T11:29:20;10.00;99.90
9668;DHT22;4872;48.316;10.650;2022-11-06T11:31:52;10.20;99.90
9668;DHT22;4872;48.316;10.650;2022-11-06T11:34:22;10.20;99.90
9668;DHT22;4872;48.316;10.650;2022-11-06T11:36:53;10.30;99.90
9668;DHT22;4872;48.316;10.650;2022-11-06T11:39:23;10.40;99.90
9668;DHT22;4872;48.316;10.650;2022-11-06T11:41:50;10.50;99.90
9668;DHT22;4872;48.316;10.650;2022-11-06T11:44:18;10.70;99.90
9668;DHT22;4872;48.316;10.650;2022-11-06T11:46:47;10.90;99.90
9668;DHT22;4872;48.316;10.650;2022-11-06T11:49:30;11.20;99.90
9668;DHT22;4872;48.316;10.650;2022-11-06T11:51:58;11.40;99.90
9668;DHT22;4872;48.316;10.650;2022-11-06T11:54:27;11.50;99.90
9668;DHT22;4872;48.316;10.650;2022-11-06T11:56:57;11.70;99.90
9668;DHT22;4872;48.316;10.650;2022-11-06T11:59:28;11.70;99.90
9668;DHT22;4872;48.316;10.650;2022-11-06T12:01:59;11.80;99.90
9668;DHT22;4872;48.316;10.650;2022-11-06T12:04:30;11.80;99.90
9668;DHT22;4872;48.316;10.650;2022-11-06T12:07:02;12.00;99.90
9668;DHT22;4872;48.316;10.650;2022-11-06T12:09:32;12.00;99.90
9668;DHT22;4872;48.316;10.650;2022-11-06T12:12:01;11.90;99.90
9668;DHT22;4872;48.316;10.650;2022-11-06T12:14:31;11.90;99.90
9668;DHT22;4872;48.316;10.650;2022-11-06T12:17:08;11.90;99.90
9668;DHT22;4872;48.316;10.650;2022-11-06T12:19:43;12.00;99.90
9668;DHT22;4872;48.316;10.650;2022-11-06T12:22:16;12.00;99.90
9668;DHT22;4872;48.316;10.650;2022-11-06T12:24:49;12.20;99.90
9668;DHT22;4872;48.316;10.650;2022-11-06T12:27:21;12.40;99.90
9668;DHT22;4872;48.316;10.650;2022-11-06T12:29:52;12.50;99.90
9668;DHT22;4872;48.316;10.650;2022-11-06T12:32:27;12.60;99.90
9668;DHT22;4872;48.316;10.650;2022-11-06T12:35:05;12.70;99.90
9668;DHT22;4872;48.316;10.650;2022-11-06T12:37:42;12.80;99.90
9668;DHT22;4872;48.316;10.650;2022-11-06T12:40:17;12.90;99.90
9668;DHT22;4872;48.316;10.650;2022-11-06T12:42:54;12.90;99.90
9668;DHT22;4872;48.316;10.650;2022-11-06T12:45:29;13.00;99.90
9668;DHT22;4872;48.316;10.650;2022-11-06T12:48:06;13.10;99.90
9668;DHT22;4872;48.316;10.650;2022-11-06T12:50:40;13.10;99.90
9668;DHT22;4872;48.316;10.650;2022-11-06T12:53:18;13.20;99.90
9668;DHT22;4872;48.316;10.650;2022-11-06T12:55:53;13.40;99.90
9668;DHT22;4872;48.316;10.650;2022-11-06T12:58:41;13.50;99.90
9668;DHT22;4872;48.316;10.650;2022-11-06T13:01:17;13.60;99.90
9668;DHT22;4872;48.316;10.650;2022-11-06T13:04:06;13.50;99.70
9668;DHT22;4872;48.316;10.650;2022-11-06T13:06:56;13.60;99.60
9668;DHT22;4872;48.316;10.650;2022-11-06T13:09:27;13.70;99.70
9668;DHT22;4872;48.316;10.650;2022-11-06T13:12:04;13.60;99.70
9668;DHT22;4872;48.316;10.650;2022-11-06T13:14:37;13.70;99.50
9668;DHT22;4872;48.316;10.650;2022-11-06T13:17:11;14.10;99.10
9668;DHT22;4872;48.316;10.650;2022-11-06T13:19:44;14.20;98.90
9668;DHT22;4872;48.316;10.650;2022-11-06T13:22:24;14.30;98.80
9668;DHT22;4872;48.316;10.650;2022-11-06T13:24:58;14.60;98.70
9668;DHT22;4872;48.316;10.650;2022-11-06T13:27:32;14.80;98.40
9668;DHT22;4872;48.316;10.650;2022-11-06T13:30:09;15.10;97.80
9668;DHT22;4872;48.316;10.650;2022-11-06T13:32:39;15.30;97.60
9668;DHT22;4872;48.316;10.650;2022-11-06T13:35:12;15.30;97.10
9668;DHT22;4872;48.316;10.650;2022-11-06T13:37:45;15.50;97.10
9668;DHT22;4872;48.316;10.650;2022-11-06T13:40:21;15.50;96.50
9668;DHT22;4872;48.316;10.650;2022-11-06T13:42:51;15.40;95.90
9668;DHT22;4872;48.316;10.650;2022-11-06T13:45:20;15.40;95.80
9668;DHT22;4872;48.316;10.650;2022-11-06T13:47:58;15.30;95.70
9668;DHT22;4872;48.316;10.650;2022-11-06T13:50:31;15.10;95.70
9668;DHT22;4872;48.316;10.650;2022-11-06T13:53:03;15.00;95.90
9668;DHT22;4872;48.316;10.650;2022-11-06T13:55:40;14.90;95.80
9668;DHT22;4872;48.316;10.650;2022-11-06T13:58:25;14.90;95.90
9668;DHT22;4872;48.316;10.650;2022-11-06T14:01:05;14.90;96.20
9668;DHT22;4872;48.316;10.650;2022-11-06T14:06:29;15.10;96.10
9668;DHT22;4872;48.316;10.650;2022-11-06T14:09:00;15.10;95.70
9668;DHT22;4872;48.316;10.650;2022-11-06T14:11:29;15.00;95.40
9668;DHT22;4872;48.316;10.650;2022-11-06T14:13:58;14.80;94.70
9668;DHT22;4872;48.316;10.650;2022-11-06T14:16:28;14.60;94.50
9668;DHT22;4872;48.316;10.650;2022-11-06T14:18:58;14.30;94.90
9668;DHT22;4872;48.316;10.650;2022-11-06T14:21:45;14.00;94.90
9668;DHT22;4872;48.316;10.650;2022-11-06T14:24:37;13.80;95.10
9668;DHT22;4872;48.316;10.650;2022-11-06T14:27:09;13.50;95.30
9668;DHT22;4872;48.316;10.650;2022-11-06T14:29:55;13.20;95.50
9668;DHT22;4872;48.316;10.650;2022-11-06T14:32:35;12.80;96.00
9668;DHT22;4872;48.316;10.650;2022-11-06T14:38:36;12.30;96.40
9668;DHT22;4872;48.316;10.650;2022-11-06T14:44:45;12.00;96.90
9668;DHT22;4872;48.316;10.650;2022-11-06T14:47:27;11.90;96.80
9668;DHT22;4872;48.316;10.650;2022-11-06T14:49:56;11.70;97.30
9668;DHT22;4872;48.316;10.650;2022-11-06T14:52:25;11.60;97.80
9668;DHT22;4872;48.316;10.650;2022-11-06T14:54:56;11.50;98.00
9668;DHT22;4872;48.316;10.650;2022-11-06T14:57:37;11.30;98.60
9668;DHT22;4872;48.316;10.650;2022-11-06T15:00:12;11.20;98.90
9668;DHT22;4872;48.316;10.650;2022-11-06T15:02:40;11.00;99.20
9668;DHT22;4872;48.316;10.650;2022-11-06T15:05:14;10.80;99.20
9668;DHT22;4872;48.316;10.650;2022-11-06T15:07:54;10.80;99.70
9668;DHT22;4872;48.316;10.650;2022-11-06T15:10:51;10.80;99.70
9668;DHT22;4872;48.316;10.650;2022-11-06T15:13:28;10.50;99.90
9668;DHT22;4872;48.316;10.650;2022-11-06T15:16:11;10.40;99.70
9668;DHT22;4872;48.316;10.650;2022-11-06T15:18:41;10.30;99.90
9668;DHT22;4872;48.316;10.650;2022-11-06T15:21:14;10.30;99.90
9668;DHT22;4872;48.316;10.650;2022-11-06T15:23:53;10.20;99.90
9668;DHT22;4872;48.316;10.650;2022-11-06T15:26:23;10.10;99.90
9668;DHT22;4872;48.316;10.650;2022-11-06T15:29:02;9.90;99.90
9668;DHT22;4872;48.316;10.650;2022-11-06T15:31:32;10.00;99.90
9668;DHT22;4872;48.316;10.650;2022-11-06T15:34:01;9.70;99.90
9668;DHT22;4872;48.316;10.650;2022-11-06T15:36:33;9.60;99.90
9668;DHT22;4872;48.316;10.650;2022-11-06T15:39:21;9.60;99.90
9668;DHT22;4872;48.316;10.650;2022-11-06T15:41:48;9.50;99.90
9668;DHT22;4872;48.316;10.650;2022-11-06T15:44:18;9.40;99.90
9668;DHT22;4872;48.316;10.650;2022-11-06T15:46:53;9.40;99.90
9668;DHT22;4872;48.316;10.650;2022-11-06T15:49:20;9.30;99.90
9668;DHT22;4872;48.316;10.650;2022-11-06T15:51:52;9.20;99.90
9668;DHT22;4872;48.316;10.650;2022-11-06T15:54:32;9.10;99.90
9668;DHT22;4872;48.316;10.650;2022-11-06T15:57:02;9.00;99.90
9668;DHT22;4872;48.316;10.650;2022-11-06T15:59:29;8.90;99.90
9668;DHT22;4872;48.316;10.650;2022-11-06T16:02:03;8.90;99.90
9668;DHT22;4872;48.316;10.650;2022-11-06T16:04:30;8.80;99.90
9668;DHT22;4872;48.316;10.650;2022-11-06T16:06:59;8.70;99.90
9668;DHT22;4872;48.316;10.650;2022-11-06T16:09:26;8.70;99.90
9668;DHT22;4872;48.316;10.650;2022-11-06T16:11:54;8.60;99.90
9668;DHT22;4872;48.316;10.650;2022-11-06T16:14:22;8.50;99.90
9668;DHT22;4872;48.316;10.650;2022-11-06T16:16:49;8.50;99.90
9668;DHT22;4872;48.316;10.650;2022-11-06T16:19:27;8.40;99.90
9668;DHT22;4872;48.316;10.650;2022-11-06T16:21:58;8.30;99.90
9668;DHT22;4872;48.316;10.650;2022-11-06T16:24:30;8.20;99.90
9668;DHT22;4872;48.316;10.650;2022-11-06T16:26:59;8.10;99.90
9668;DHT22;4872;48.316;10.650;2022-11-06T16:29:30;8.20;99.90
9668;DHT22;4872;48.316;10.650;2022-11-06T16:32:02;8.00;99.90
9668;DHT22;4872;48.316;10.650;2022-11-06T16:34:36;8.10;99.90
9668;DHT22;4872;48.316;10.650;2022-11-06T16:37:05;8.00;99.90
9668;DHT22;4872;48.316;10.650;2022-11-06T16:39:44;7.90;99.90
9668;DHT22;4872;48.316;10.650;2022-11-06T16:42:22;7.90;99.90
9668;DHT22;4872;48.316;10.650;2022-11-06T16:44:50;7.90;99.90
9668;DHT22;4872;48.316;10.650;2022-11-06T16:47:24;7.80;99.90
9668;DHT22;4872;48.316;10.650;2022-11-06T16:49:54;7.80;99.90
9668;DHT22;4872;48.316;10.650;2022-11-06T16:52:25;7.80;99.90
9668;DHT22;4872;48.316;10.650;2022-11-06T16:54:54;7.80;99.90
9668;DHT22;4872;48.316;10.650;2022-11-06T16:57:24;7.80;99.90
9668;DHT22;4872;48.316;10.650;2022-11-06T16:59:57;7.70;99.90
9668;DHT22;4872;48.316;10.650;2022-11-06T17:02:28;7.70;99.90
9668;DHT22;4872;48.316;10.650;2022-11-06T17:05:13;7.60;99.90
9668;DHT22;4872;48.316;10.650;2022-11-06T17:07:41;7.60;99.90
9668;DHT22;4872;48.316;10.650;2022-11-06T17:10:25;7.60;99.90
9668;DHT22;4872;48.316;10.650;2022-11-06T17:12:52;7.60;99.90
9668;DHT22;4872;48.316;10.650;2022-11-06T17:15:19;7.60;99.90
9668;DHT22;4872;48.316;10.650;2022-11-06T17:17:48;7.60;99.90
9668;DHT22;4872;48.316;10.650;2022-11-06T17:20:17;7.60;99.90
9668;DHT22;4872;48.316;10.650;2022-11-06T17:22:45;7.60;99.90
9668;DHT22;4872;48.316;10.650;2022-11-06T17:25:12;7.60;99.90
9668;DHT22;4872;48.316;10.650;2022-11-06T17:27:38;7.60;99.90
9668;DHT22;4872;48.316;10.650;2022-11-06T17:30:11;7.50;99.90
9668;DHT22;4872;48.316;10.650;2022-11-06T17:32:38;7.40;99.90
9668;DHT22;4872;48.316;10.650;2022-11-06T17:35:06;7.30;99.90
9668;DHT22;4872;48.316;10.650;2022-11-06T17:37:34;7.30;99.90
9668;DHT22;4872;48.316;10.650;2022-11-06T17:40:02;7.40;99.90
9668;DHT22;4872;48.316;10.650;2022-11-06T17:42:29;7.30;99.90
9668;DHT22;4872;48.316;10.650;2022-11-06T17:44:56;7.30;99.90
9668;DHT22;4872;48.316;10.650;2022-11-06T17:47:23;7.30;99.90
9668;DHT22;4872;48.316;10.650;2022-11-06T17:49:50;7.30;99.90
9668;DHT22;4872;48.316;10.650;2022-11-06T17:52:16;7.30;99.90
9668;DHT22;4872;48.316;10.650;2022-11-06T17:54:47;7.30;99.90
9668;DHT22;4872;48.316;10.650;2022-11-06T17:57:13;7.20;99.90
9668;DHT22;4872;48.316;10.650;2022-11-06T17:59:41;7.20;99.90
9668;DHT22;4872;48.316;10.650;2022-11-06T18:02:10;7.20;99.90
9668;DHT22;4872;48.316;10.650;2022-11-06T18:04:39;7.30;99.90
9668;DHT22;4872;48.316;10.650;2022-11-06T18:07:06;7.30;99.90
9668;DHT22;4872;48.316;10.650;2022-11-06T18:09:33;7.30;99.90
9668;DHT22;4872;48.316;10.650;2022-11-06T18:12:05;7.30;99.90
9668;DHT22;4872;48.316;10.650;2022-11-06T18:14:33;7.30;99.90
9668;DHT22;4872;48.316;10.650;2022-11-06T18:17:00;7.30;99.90
9668;DHT22;4872;48.316;10.650;2022-11-06T18:19:27;7.30;99.90
9668;DHT22;4872;48.316;10.650;2022-11-06T18:21:54;7.30;99.90
9668;DHT22;4872;48.316;10.650;2022-11-06T18:24:21;7.20;99.90
9668;DHT22;4872;48.316;10.650;2022-11-06T18:26:48;7.20;99.90
9668;DHT22;4872;48.316;10.650;2022-11-06T18:29:16;7.20;99.90
9668;DHT22;4872;48.316;10.650;2022-11-06T18:31:43;7.10;99.90
9668;DHT22;4872;48.316;10.650;2022-11-06T18:34:13;7.20;99.90
9668;DHT22;4872;48.316;10.650;2022-11-06T18:36:40;7.20;99.90
9668;DHT22;4872;48.316;10.650;2022-11-06T18:39:07;7.10;99.90
9668;DHT22;4872;48.316;10.650;2022-11-06T18:41:34;7.10;99.90
9668;DHT22;4872;48.316;10.650;2022-11-06T18:44:01;7.10;99.90
9668;DHT22;4872;48.316;10.650;2022-11-06T18:46:29;7.10;99.90
9668;DHT22;4872;48.316;10.650;2022-11-06T18:48:57;7.10;99.90
9668;DHT22;4872;48.316;10.650;2022-11-06T18:51:28;7.10;99.90
9668;DHT22;4872;48.316;10.650;2022-11-06T18:53:56;7.10;99.90
9668;DHT22;4872;48.316;10.650;2022-11-06T18:56:23;7.20;99.90
9668;DHT22;4872;48.316;10.650;2022-11-06T18:58:51;7.10;99.90
9668;DHT22;4872;48.316;10.650;2022-11-06T19:01:19;7.10;99.90
9668;DHT22;4872;48.316;10.650;2022-11-06T19:03:49;7.10;99.90
9668;DHT22;4872;48.316;10.650;2022-11-06T19:06:17;7.10;99.90
9668;DHT22;4872;48.316;10.650;2022-11-06T19:08:44;7.20;99.90
9668;DHT22;4872;48.316;10.650;2022-11-06T19:11:13;7.20;99.90
9668;DHT22;4872;48.316;10.650;2022-11-06T19:13:41;7.20;99.90
9668;DHT22;4872;48.316;10.650;2022-11-06T19:16:08;7.20;99.90
9668;DHT22;4872;48.316;10.650;2022-11-06T19:18:37;7.20;99.90
9668;DHT22;4872;48.316;10.650;2022-11-06T19:21:07;7.20;99.90
9668;DHT22;4872;48.316;10.650;2022-11-06T19:23:35;7.20;99.90
9668;DHT22;4872;48.316;10.650;2022-11-06T19:26:04;7.20;99.90
9668;DHT22;4872;48.316;10.650;2022-11-06T19:28:31;7.20;99.90
9668;DHT22;4872;48.316;10.650;2022-11-06T19:30:59;7.30;99.90
9668;DHT22;4872;48.316;10.650;2022-11-06T19:33:26;7.30;99.90
9668;DHT22;4872;48.316;10.650;2022-11-06T19:35:54;7.30;99.90
9668;DHT22;4872;48.316;10.650;2022-11-06T19:38:22;7.30;99.90
9668;DHT22;4872;48.316;10.650;2022-11-06T19:40:54;7.30;99.90
9668;DHT22;4872;48.316;10.650;2022-11-06T19:43:21;7.30;99.90
9668;DHT22;4872;48.316;10.650;2022-11-06T19:45:48;7.30;99.90
9668;DHT22;4872;48.316;10.650;2022-11-06T19:48:17;7.30;99.90
9668;DHT22;4872;48.316;10.650;2022-11-06T19:50:45;7.30;99.90
9668;DHT22;4872;48.316;10.650;2022-11-06T19:53:17;7.30;99.90
9668;DHT22;4872;48.316;10.650;2022-11-06T19:55:46;7.40;99.90
9668;DHT22;4872;48.316;10.650;2022-11-06T19:58:13;7.30;99.90
9668;DHT22;4872;48.316;10.650;2022-11-06T20:00:41;7.60;99.90
9668;DHT22;4872;48.316;10.650;2022-11-06T20:03:08;7.70;99.90
9668;DHT22;4872;48.316;10.650;2022-11-06T20:05:35;7.70;99.90
9668;DHT22;4872;48.316;10.650;2022-11-06T20:08:03;7.80;99.90
9668;DHT22;4872;48.316;10.650;2022-11-06T20:10:31;7.80;99.90
9668;DHT22;4872;48.316;10.650;2022-11-06T20:13:01;7.90;99.90
9668;DHT22;4872;48.316;10.650;2022-11-06T20:15:28;7.90;99.90
9668;DHT22;4872;48.316;10.650;2022-11-06T20:17:55;7.90;99.90
9668;DHT22;4872;48.316;10.650;2022-11-06T20:20:22;8.00;99.90
9668;DHT22;4872;48.316;10.650;2022-11-06T20:22:49;8.10;99.90
9668;DHT22;4872;48.316;10.650;2022-11-06T20:25:16;8.10;99.90
9668;DHT22;4872;48.316;10.650;2022-11-06T20:27:43;8.20;99.90
9668;DHT22;4872;48.316;10.650;2022-11-06T20:30:12;8.30;99.90
9668;DHT22;4872;48.316;10.650;2022-11-06T20:32:39;8.30;99.90
9668;DHT22;4872;48.316;10.650;2022-11-06T20:35:07;8.40;99.70
9668;DHT22;4872;48.316;10.650;2022-11-06T20:37:34;8.50;99.60
9668;DHT22;4872;48.316;10.650;2022-11-06T20:40:02;8.60;99.40
9668;DHT22;4872;48.316;10.650;2022-11-06T20:42:29;8.60;99.30
9668;DHT22;4872;48.316;10.650;2022-11-06T20:44:57;8.60;99.30
9668;DHT22;4872;48.316;10.650;2022-11-06T20:47:25;8.60;99.40
9668;DHT22;4872;48.316;10.650;2022-11-06T20:49:52;8.70;99.00
9668;DHT22;4872;48.316;10.650;2022-11-06T20:52:19;8.70;98.80
9668;DHT22;4872;48.316;10.650;2022-11-06T20:54:45;8.80;98.90
9668;DHT22;4872;48.316;10.650;2022-11-06T20:57:12;8.80;98.70
9668;DHT22;4872;48.316;10.650;2022-11-06T20:59:39;8.80;98.70
9668;DHT22;4872;48.316;10.650;2022-11-06T21:02:06;8.90;98.50
9668;DHT22;4872;48.316;10.650;2022-11-06T21:04:36;8.80;98.60
9668;DHT22;4872;48.316;10.650;2022-11-06T21:07:03;8.90;98.30
9668;DHT22;4872;48.316;10.650;2022-11-06T21:09:30;8.90;98.30
9668;DHT22;4872;48.316;10.650;2022-11-06T21:11:56;8.80;98.30
9668;DHT22;4872;48.316;10.650;2022-11-06T21:14:23;8.90;98.30
9668;DHT22;4872;48.316;10.650;2022-11-06T21:16:50;8.90;98.30
9668;DHT22;4872;48.316;10.650;2022-11-06T21:19:18;8.90;98.50